sensor_id;sensor_type;location;lat;lon;timestamp;P1;durP1;ratioP1;P2;durP2;ratioP2
20824;SDS011;10573;50.936;6.978;2024-03-23T00:56:28;23.70;;;10.63;;
20824;SDS011;10573;50.936;6.978;2024-03-23T00:59:12;29.65;;;11.25;;
20824;SDS011;10573;50.936;6.978;2024-03-23T01:01:55;25.83;;;10.70;;
20824;SDS011;10573;50.936;6.978;2024-03-23T01:04:40;20.60;;;9.80;;
20824;SDS011;10573;50.936;6.978;2024-03-23T01:07:24;25.50;;;10.20;;
20824;SDS011;10573;50.936;6.978;2024-03-23T01:10:08;28.25;;;11.48;;
20824;SDS011;10573;50.936;6.978;2024-03-23T01:12:53;27.30;;;10.60;;
20824;SDS011;10573;50.936;6.978;2024-03-23T01:15:37;26.33;;;9.98;;
20824;SDS011;10573;50.936;6.978;2024-03-23T01:18:21;22.20;;;9.43;;
20824;SDS011;10573;50.936;6.978;2024-03-23T01:21:06;22.63;;;9.55;;
20824;SDS011;10573;50.936;6.978;2024-03-23T01:23:50;19.10;;;8.35;;
20824;SDS011;10573;50.936;6.978;2024-03-23T01:26:34;14.93;;;5.93;;
20824;SDS011;10573;50.936;6.978;2024-03-23T01:29:18;7.43;;;4.07;;
20824;SDS011;10573;50.936;6.978;2024-03-23T01:32:02;9.38;;;3.72;;
20824;SDS011;10573;50.936;6.978;2024-03-23T01:34:47;7.40;;;3.20;;
20824;SDS011;10573;50.936;6.978;2024-03-23T01:37:30;8.43;;;3.58;;
20824;SDS011;10573;50.936;6.978;2024-03-23T01:40:16;7.57;;;3.25;;
20824;SDS011;10573;50.936;6.978;2024-03-23T01:43:04;7.20;;;3.03;;
20824;SDS011;10573;50.936;6.978;2024-03-23T01:45:51;7.18;;;3.40;;
20824;SDS011;10573;50.936;6.978;2024-03-23T01:48:36;7.80;;;3.78;;
20824;SDS011;10573;50.936;6.978;2024-03-23T01:51:20;7.82;;;3.97;;
20824;SDS011;10573;50.936;6.978;2024-03-23T01:54:04;10.55;;;4.63;;
20824;SDS011;10573;50.936;6.978;2024-03-23T01:56:49;9.18;;;3.95;;
20824;SDS011;10573;50.936;6.978;2024-03-23T01:59:33;7.65;;;3.35;;
20824;SDS011;10573;50.936;6.978;2024-03-23T02:02:17;10.38;;;3.80;;
20824;SDS011;10573;50.936;6.978;2024-03-23T02:05:03;8.38;;;3.38;;
20824;SDS011;10573;50.936;6.978;2024-03-23T02:07:48;10.35;;;3.53;;
20824;SDS011;10573;50.936;6.978;2024-03-23T02:10:31;8.85;;;4.00;;
20824;SDS011;10573;50.936;6.978;2024-03-23T02:13:16;11.82;;;3.75;;
20824;SDS011;10573;50.936;6.978;2024-03-23T02:16:01;10.93;;;4.07;;
20824;SDS011;10573;50.936;6.978;2024-03-23T02:18:45;8.37;;;4.23;;
20824;SDS011;10573;50.936;6.978;2024-03-23T02:21:29;9.50;;;3.80;;
20824;SDS011;10573;50.936;6.978;2024-03-23T02:24:15;6.82;;;3.35;;
20824;SDS011;10573;50.936;6.978;2024-03-23T02:26:59;9.30;;;3.42;;
20824;SDS011;10573;50.936;6.978;2024-03-23T02:29:43;8.88;;;2.95;;
20824;SDS011;10573;50.936;6.978;2024-03-23T02:32:27;9.77;;;3.00;;
20824;SDS011;10573;50.936;6.978;2024-03-23T02:35:11;9.75;;;3.22;;
20824;SDS011;10573;50.936;6.978;2024-03-23T02:37:56;10.48;;;3.78;;
20824;SDS011;10573;50.936;6.978;2024-03-23T02:40:40;9.55;;;3.70;;
20824;SDS011;10573;50.936;6.978;2024-03-23T02:43:24;9.73;;;4.50;;
20824;SDS011;10573;50.936;6.978;2024-03-23T02:46:08;11.02;;;4.00;;
20824;SDS011;10573;50.936;6.978;2024-03-23T02:48:52;10.40;;;3.90;;
20824;SDS011;10573;50.936;6.978;2024-03-23T02:51:36;9.68;;;3.85;;
20824;SDS011;10573;50.936;6.978;2024-03-23T02:54:21;10.55;;;3.72;;
20824;SDS011;10573;50.936;6.978;2024-03-23T02:57:05;12.90;;;4.07;;
20824;SDS011;10573;50.936;6.978;2024-03-23T02:59:49;8.60;;;3.22;;
20824;SDS011;10573;50.936;6.978;2024-03-23T03:02:33;10.70;;;3.00;;
20824;SDS011;10573;50.936;6.978;2024-03-23T03:05:17;8.50;;;3.13;;
20824;SDS011;10573;50.936;6.978;2024-03-23T03:08:01;7.97;;;3.05;;
20824;SDS011;10573;50.936;6.978;2024-03-23T03:10:45;9.13;;;2.83;;
20824;SDS011;10573;50.936;6.978;2024-03-23T03:13:29;12.18;;;3.08;;
20824;SDS011;10573;50.936;6.978;2024-03-23T03:16:13;9.48;;;3.10;;
20824;SDS011;10573;50.936;6.978;2024-03-23T03:18:58;11.68;;;3.50;;
20824;SDS011;10573;50.936;6.978;2024-03-23T03:21:42;8.35;;;3.03;;
20824;SDS011;10573;50.936;6.978;2024-03-23T03:24:25;9.23;;;3.38;;
20824;SDS011;10573;50.936;6.978;2024-03-23T03:27:10;6.38;;;3.00;;
20824;SDS011;10573;50.936;6.978;2024-03-23T03:29:53;10.02;;;3.08;;
20824;SDS011;10573;50.936;6.978;2024-03-23T03:32:37;11.90;;;2.70;;
20824;SDS011;10573;50.936;6.978;2024-03-23T03:35:21;12.10;;;3.20;;
20824;SDS011;10573;50.936;6.978;2024-03-23T03:38:05;11.25;;;2.58;;
20824;SDS011;10573;50.936;6.978;2024-03-23T03:40:49;13.95;;;3.38;;
20824;SDS011;10573;50.936;6.978;2024-03-23T03:43:33;12.73;;;3.05;;
20824;SDS011;10573;50.936;6.978;2024-03-23T03:46:17;13.30;;;3.20;;
20824;SDS011;10573;50.936;6.978;2024-03-23T03:49:01;14.20;;;3.60;;
20824;SDS011;10573;50.936;6.978;2024-03-23T03:51:46;15.75;;;3.97;;
20824;SDS011;10573;50.936;6.978;2024-03-23T03:54:30;12.70;;;3.33;;
20824;SDS011;10573;50.936;6.978;2024-03-23T03:57:14;12.55;;;3.60;;
20824;SDS011;10573;50.936;6.978;2024-03-23T03:59:58;14.15;;;3.85;;
20824;SDS011;10573;50.936;6.978;2024-03-23T04:02:42;11.35;;;3.15;;
20824;SDS011;10573;50.936;6.978;2024-03-23T04:05:26;9.50;;;2.70;;
20824;SDS011;10573;50.936;6.978;2024-03-23T04:08:09;11.77;;;3.03;;
20824;SDS011;10573;50.936;6.978;2024-03-23T04:10:53;10.57;;;2.35;;
20824;SDS011;10573;50.936;6.978;2024-03-23T04:13:37;12.77;;;2.53;;
20824;SDS011;10573;50.936;6.978;2024-03-23T04:16:28;8.35;;;2.45;;
20824;SDS011;10573;50.936;6.978;2024-03-23T04:19:13;12.88;;;2.78;;
20824;SDS011;10573;50.936;6.978;2024-03-23T04:21:57;11.37;;;2.53;;
20824;SDS011;10573;50.936;6.978;2024-03-23T04:24:42;12.95;;;2.83;;
20824;SDS011;10573;50.936;6.978;2024-03-23T04:27:26;10.85;;;2.30;;
20824;SDS011;10573;50.936;6.978;2024-03-23T04:30:10;11.45;;;2.65;;
20824;SDS011;10573;50.936;6.978;2024-03-23T04:32:55;11.73;;;2.27;;
20824;SDS011;10573;50.936;6.978;2024-03-23T04:35:40;11.70;;;2.47;;
20824;SDS011;10573;50.936;6.978;2024-03-23T04:38:24;12.53;;;2.20;;
20824;SDS011;10573;50.936;6.978;2024-03-23T04:41:09;8.38;;;2.47;;
20824;SDS011;10573;50.936;6.978;2024-03-23T04:43:54;17.20;;;2.88;;
20824;SDS011;10573;50.936;6.978;2024-03-23T04:46:38;11.15;;;2.30;;
20824;SDS011;10573;50.936;6.978;2024-03-23T04:49:22;11.57;;;2.08;;
20824;SDS011;10573;50.936;6.978;2024-03-23T04:52:06;11.40;;;2.70;;
20824;SDS011;10573;50.936;6.978;2024-03-23T04:54:50;9.30;;;2.13;;
20824;SDS011;10573;50.936;6.978;2024-03-23T04:57:34;9.05;;;2.30;;
20824;SDS011;10573;50.936;6.978;2024-03-23T05:00:18;9.82;;;2.58;;
20824;SDS011;10573;50.936;6.978;2024-03-23T05:03:02;10.77;;;2.50;;
20824;SDS011;10573;50.936;6.978;2024-03-23T05:05:48;12.77;;;2.90;;
20824;SDS011;10573;50.936;6.978;2024-03-23T05:08:32;13.73;;;2.97;;
20824;SDS011;10573;50.936;6.978;2024-03-23T05:11:16;11.85;;;2.88;;
20824;SDS011;10573;50.936;6.978;2024-03-23T05:14:00;10.90;;;2.58;;
20824;SDS011;10573;50.936;6.978;2024-03-23T05:16:46;10.32;;;2.38;;
20824;SDS011;10573;50.936;6.978;2024-03-23T05:19:30;13.10;;;2.85;;
20824;SDS011;10573;50.936;6.978;2024-03-23T05:22:14;14.77;;;3.60;;
20824;SDS011;10573;50.936;6.978;2024-03-23T05:24:58;12.18;;;3.00;;
20824;SDS011;10573;50.936;6.978;2024-03-23T05:27:42;12.45;;;3.03;;
20824;SDS011;10573;50.936;6.978;2024-03-23T05:30:26;13.38;;;2.88;;
20824;SDS011;10573;50.936;6.978;2024-03-23T05:33:10;16.47;;;3.70;;
20824;SDS011;10573;50.936;6.978;2024-03-23T05:35:57;18.67;;;3.80;;
20824;SDS011;10573;50.936;6.978;2024-03-23T05:38:42;12.77;;;3.90;;
20824;SDS011;10573;50.936;6.978;2024-03-23T05:41:26;13.60;;;3.10;;
20824;SDS011;10573;50.936;6.978;2024-03-23T05:44:10;9.93;;;2.88;;
20824;SDS011;10573;50.936;6.978;2024-03-23T05:46:55;10.95;;;2.58;;
20824;SDS011;10573;50.936;6.978;2024-03-23T05:49:38;10.35;;;2.70;;
20824;SDS011;10573;50.936;6.978;2024-03-23T05:52:23;15.18;;;3.00;;
20824;SDS011;10573;50.936;6.978;2024-03-23T05:55:08;16.70;;;3.38;;
20824;SDS011;10573;50.936;6.978;2024-03-23T05:57:52;11.30;;;2.80;;
20824;SDS011;10573;50.936;6.978;2024-03-23T06:00:36;14.02;;;3.60;;
20824;SDS011;10573;50.936;6.978;2024-03-23T06:03:20;14.52;;;3.40;;
20824;SDS011;10573;50.936;6.978;2024-03-23T06:06:04;12.98;;;2.95;;
20824;SDS011;10573;50.936;6.978;2024-03-23T06:08:54;12.40;;;3.42;;
20824;SDS011;10573;50.936;6.978;2024-03-23T06:11:38;14.90;;;4.03;;
20824;SDS011;10573;50.936;6.978;2024-03-23T06:14:22;12.27;;;3.05;;
20824;SDS011;10573;50.936;6.978;2024-03-23T06:17:06;15.50;;;3.20;;
20824;SDS011;10573;50.936;6.978;2024-03-23T06:19:50;15.38;;;3.05;;
20824;SDS011;10573;50.936;6.978;2024-03-23T06:22:34;12.43;;;3.60;;
20824;SDS011;10573;50.936;6.978;2024-03-23T06:25:18;12.30;;;2.75;;
20824;SDS011;10573;50.936;6.978;2024-03-23T06:28:01;12.27;;;2.97;;
20824;SDS011;10573;50.936;6.978;2024-03-23T06:30:46;16.92;;;3.50;;
20824;SDS011;10573;50.936;6.978;2024-03-23T06:33:31;17.55;;;4.10;;
20824;SDS011;10573;50.936;6.978;2024-03-23T06:36:15;15.35;;;4.05;;
20824;SDS011;10573;50.936;6.978;2024-03-23T06:38:59;13.50;;;3.85;;
20824;SDS011;10573;50.936;6.978;2024-03-23T06:41:43;17.13;;;4.15;;
20824;SDS011;10573;50.936;6.978;2024-03-23T06:44:34;12.75;;;3.75;;
20824;SDS011;10573;50.936;6.978;2024-03-23T06:47:18;16.38;;;4.40;;
20824;SDS011;10573;50.936;6.978;2024-03-23T06:50:03;14.40;;;3.80;;
20824;SDS011;10573;50.936;6.978;2024-03-23T06:52:49;13.27;;;3.63;;
20824;SDS011;10573;50.936;6.978;2024-03-23T06:55:33;16.17;;;4.50;;
20824;SDS011;10573;50.936;6.978;2024-03-23T06:58:18;18.20;;;4.43;;
20824;SDS011;10573;50.936;6.978;2024-03-23T07:01:03;18.35;;;4.10;;
20824;SDS011;10573;50.936;6.978;2024-03-23T07:03:47;12.95;;;3.53;;
20824;SDS011;10573;50.936;6.978;2024-03-23T07:06:31;20.80;;;4.28;;
20824;SDS011;10573;50.936;6.978;2024-03-23T07:09:15;14.85;;;3.88;;
20824;SDS011;10573;50.936;6.978;2024-03-23T07:11:59;12.07;;;3.80;;
20824;SDS011;10573;50.936;6.978;2024-03-23T07:14:43;16.35;;;4.43;;
20824;SDS011;10573;50.936;6.978;2024-03-23T07:17:27;12.23;;;3.83;;
20824;SDS011;10573;50.936;6.978;2024-03-23T07:20:11;16.88;;;4.57;;
20824;SDS011;10573;50.936;6.978;2024-03-23T07:22:55;12.82;;;4.47;;
20824;SDS011;10573;50.936;6.978;2024-03-23T07:25:39;17.33;;;4.45;;
20824;SDS011;10573;50.936;6.978;2024-03-23T07:28:22;13.15;;;4.35;;
20824;SDS011;10573;50.936;6.978;2024-03-23T07:31:07;16.38;;;4.95;;
20824;SDS011;10573;50.936;6.978;2024-03-23T07:33:52;18.13;;;5.00;;
20824;SDS011;10573;50.936;6.978;2024-03-23T07:36:36;14.57;;;4.90;;
20824;SDS011;10573;50.936;6.978;2024-03-23T07:39:20;18.45;;;4.82;;
20824;SDS011;10573;50.936;6.978;2024-03-23T07:42:04;13.18;;;4.75;;
20824;SDS011;10573;50.936;6.978;2024-03-23T07:44:48;14.55;;;4.55;;
20824;SDS011;10573;50.936;6.978;2024-03-23T07:47:33;15.38;;;4.88;;
20824;SDS011;10573;50.936;6.978;2024-03-23T07:50:17;13.77;;;4.97;;
20824;SDS011;10573;50.936;6.978;2024-03-23T07:53:01;16.03;;;5.23;;
20824;SDS011;10573;50.936;6.978;2024-03-23T07:55:51;17.75;;;5.60;;
20824;SDS011;10573;50.936;6.978;2024-03-23T07:58:39;16.42;;;5.25;;
20824;SDS011;10573;50.936;6.978;2024-03-23T08:01:23;16.83;;;5.20;;
20824;SDS011;10573;50.936;6.978;2024-03-23T08:04:07;16.42;;;5.35;;
20824;SDS011;10573;50.936;6.978;2024-03-23T08:06:51;17.38;;;5.47;;
20824;SDS011;10573;50.936;6.978;2024-03-23T08:09:35;16.60;;;5.63;;
20824;SDS011;10573;50.936;6.978;2024-03-23T08:12:19;16.42;;;5.30;;
20824;SDS011;10573;50.936;6.978;2024-03-23T08:15:04;13.68;;;5.20;;
20824;SDS011;10573;50.936;6.978;2024-03-23T08:17:49;11.80;;;4.57;;
20824;SDS011;10573;50.936;6.978;2024-03-23T08:20:33;10.63;;;4.35;;
20824;SDS011;10573;50.936;6.978;2024-03-23T08:23:17;12.07;;;4.18;;
20824;SDS011;10573;50.936;6.978;2024-03-23T08:26:01;11.27;;;4.00;;
20824;SDS011;10573;50.936;6.978;2024-03-23T08:28:50;11.13;;;3.95;;
20824;SDS011;10573;50.936;6.978;2024-03-23T08:31:33;10.75;;;3.70;;
20824;SDS011;10573;50.936;6.978;2024-03-23T08:34:17;9.98;;;2.97;;
20824;SDS011;10573;50.936;6.978;2024-03-23T08:37:01;10.88;;;3.03;;
20824;SDS011;10573;50.936;6.978;2024-03-23T08:39:45;10.00;;;2.72;;
20824;SDS011;10573;50.936;6.978;2024-03-23T08:42:31;8.63;;;3.15;;
20824;SDS011;10573;50.936;6.978;2024-03-23T08:45:15;12.48;;;3.50;;
20824;SDS011;10573;50.936;6.978;2024-03-23T08:47:59;10.93;;;3.67;;
20824;SDS011;10573;50.936;6.978;2024-03-23T08:50:43;12.50;;;3.65;;
20824;SDS011;10573;50.936;6.978;2024-03-23T08:53:27;16.17;;;4.18;;
20824;SDS011;10573;50.936;6.978;2024-03-23T08:56:13;10.57;;;3.83;;
20824;SDS011;10573;50.936;6.978;2024-03-23T08:58:57;10.93;;;3.73;;
20824;SDS011;10573;50.936;6.978;2024-03-23T09:01:41;13.10;;;4.20;;
20824;SDS011;10573;50.936;6.978;2024-03-23T09:04:25;15.30;;;4.45;;
20824;SDS011;10573;50.936;6.978;2024-03-23T09:07:09;13.57;;;4.70;;
20824;SDS011;10573;50.936;6.978;2024-03-23T09:09:53;14.88;;;4.78;;
20824;SDS011;10573;50.936;6.978;2024-03-23T09:12:37;15.13;;;4.70;;
20824;SDS011;10573;50.936;6.978;2024-03-23T09:15:21;15.18;;;4.68;;
20824;SDS011;10573;50.936;6.978;2024-03-23T09:18:05;13.75;;;4.53;;
20824;SDS011;10573;50.936;6.978;2024-03-23T09:20:49;10.15;;;4.32;;
20824;SDS011;10573;50.936;6.978;2024-03-23T09:23:33;12.25;;;4.35;;
20824;SDS011;10573;50.936;6.978;2024-03-23T09:26:17;15.55;;;4.65;;
20824;SDS011;10573;50.936;6.978;2024-03-23T09:29:01;12.35;;;4.13;;
20824;SDS011;10573;50.936;6.978;2024-03-23T09:31:45;10.23;;;3.80;;
20824;SDS011;10573;50.936;6.978;2024-03-23T09:34:29;13.52;;;3.85;;
20824;SDS011;10573;50.936;6.978;2024-03-23T09:37:13;11.88;;;3.72;;
20824;SDS011;10573;50.936;6.978;2024-03-23T09:39:57;14.65;;;4.18;;
20824;SDS011;10573;50.936;6.978;2024-03-23T09:42:41;13.48;;;3.95;;
20824;SDS011;10573;50.936;6.978;2024-03-23T09:45:30;11.82;;;3.50;;
20824;SDS011;10573;50.936;6.978;2024-03-23T09:48:13;10.38;;;2.92;;
20824;SDS011;10573;50.936;6.978;2024-03-23T09:50:58;10.48;;;3.08;;
20824;SDS011;10573;50.936;6.978;2024-03-23T09:53:42;10.15;;;3.45;;
20824;SDS011;10573;50.936;6.978;2024-03-23T09:56:26;13.65;;;3.40;;
20824;SDS011;10573;50.936;6.978;2024-03-23T09:59:10;13.32;;;3.47;;
20824;SDS011;10573;50.936;6.978;2024-03-23T10:01:54;10.73;;;2.67;;
20824;SDS011;10573;50.936;6.978;2024-03-23T10:04:39;10.50;;;2.08;;
20824;SDS011;10573;50.936;6.978;2024-03-23T10:07:25;10.20;;;2.65;;
20824;SDS011;10573;50.936;6.978;2024-03-23T10:10:13;8.93;;;2.03;;
20824;SDS011;10573;50.936;6.978;2024-03-23T10:12:58;7.65;;;2.30;;
20824;SDS011;10573;50.936;6.978;2024-03-23T10:15:42;7.43;;;2.00;;
20824;SDS011;10573;50.936;6.978;2024-03-23T10:18:26;8.57;;;2.30;;
20824;SDS011;10573;50.936;6.978;2024-03-23T10:21:13;10.20;;;2.85;;
20824;SDS011;10573;50.936;6.978;2024-03-23T10:23:58;9.45;;;2.60;;
20824;SDS011;10573;50.936;6.978;2024-03-23T10:26:55;8.63;;;2.33;;
20824;SDS011;10573;50.936;6.978;2024-03-23T10:29:40;7.30;;;1.95;;
20824;SDS011;10573;50.936;6.978;2024-03-23T10:32:24;7.32;;;1.95;;
20824;SDS011;10573;50.936;6.978;2024-03-23T10:35:18;7.33;;;2.03;;
20824;SDS011;10573;50.936;6.978;2024-03-23T10:38:06;10.07;;;1.98;;
20824;SDS011;10573;50.936;6.978;2024-03-23T10:41:10;5.78;;;1.88;;
20824;SDS011;10573;50.936;6.978;2024-03-23T10:43:55;6.43;;;1.50;;
20824;SDS011;10573;50.936;6.978;2024-03-23T10:46:41;5.47;;;1.60;;
20824;SDS011;10573;50.936;6.978;2024-03-23T10:49:25;3.40;;;1.20;;
20824;SDS011;10573;50.936;6.978;2024-03-23T10:52:16;4.28;;;1.42;;
20824;SDS011;10573;50.936;6.978;2024-03-23T10:55:04;5.50;;;1.75;;
20824;SDS011;10573;50.936;6.978;2024-03-23T10:57:51;4.63;;;1.65;;
20824;SDS011;10573;50.936;6.978;2024-03-23T11:00:38;7.07;;;2.00;;
20824;SDS011;10573;50.936;6.978;2024-03-23T11:06:38;6.28;;;1.88;;
20824;SDS011;10573;50.936;6.978;2024-03-23T11:15:11;7.93;;;2.08;;
20824;SDS011;10573;50.936;6.978;2024-03-23T11:18:02;7.70;;;2.10;;
20824;SDS011;10573;50.936;6.978;2024-03-23T11:20:52;9.20;;;2.17;;
20824;SDS011;10573;50.936;6.978;2024-03-23T11:23:36;7.47;;;2.20;;
20824;SDS011;10573;50.936;6.978;2024-03-23T11:26:20;6.18;;;1.98;;
20824;SDS011;10573;50.936;6.978;2024-03-23T11:29:10;5.45;;;1.60;;
20824;SDS011;10573;50.936;6.978;2024-03-23T11:31:55;5.15;;;1.17;;
20824;SDS011;10573;50.936;6.978;2024-03-23T11:34:39;4.32;;;1.02;;
20824;SDS011;10573;50.936;6.978;2024-03-23T11:37:23;3.42;;;1.08;;
20824;SDS011;10573;50.936;6.978;2024-03-23T11:40:17;2.45;;;1.00;;
20824;SDS011;10573;50.936;6.978;2024-03-23T11:43:03;5.97;;;1.25;;
20824;SDS011;10573;50.936;6.978;2024-03-23T11:45:49;3.55;;;1.20;;
20824;SDS011;10573;50.936;6.978;2024-03-23T11:48:38;5.05;;;1.40;;
20824;SDS011;10573;50.936;6.978;2024-03-23T11:51:22;4.20;;;1.40;;
20824;SDS011;10573;50.936;6.978;2024-03-23T11:54:10;5.72;;;1.35;;
20824;SDS011;10573;50.936;6.978;2024-03-23T11:56:58;4.45;;;1.50;;
20824;SDS011;10573;50.936;6.978;2024-03-23T11:59:42;5.87;;;2.57;;
20824;SDS011;10573;50.936;6.978;2024-03-23T12:02:27;5.60;;;1.88;;
20824;SDS011;10573;50.936;6.978;2024-03-23T12:05:15;5.93;;;1.58;;
20824;SDS011;10573;50.936;6.978;2024-03-23T12:11:19;4.30;;;1.60;;
20824;SDS011;10573;50.936;6.978;2024-03-23T12:14:06;3.53;;;0.95;;
20824;SDS011;10573;50.936;6.978;2024-03-23T12:16:50;2.58;;;0.88;;
20824;SDS011;10573;50.936;6.978;2024-03-23T12:19:34;2.87;;;1.10;;
20824;SDS011;10573;50.936;6.978;2024-03-23T12:22:21;2.70;;;1.10;;
20824;SDS011;10573;50.936;6.978;2024-03-23T12:25:06;5.20;;;1.60;;
20824;SDS011;10573;50.936;6.978;2024-03-23T12:27:51;6.87;;;1.70;;
20824;SDS011;10573;50.936;6.978;2024-03-23T12:30:35;4.15;;;1.30;;
20824;SDS011;10573;50.936;6.978;2024-03-23T12:33:23;2.97;;;1.17;;
20824;SDS011;10573;50.936;6.978;2024-03-23T12:36:08;3.72;;;1.50;;
20824;SDS011;10573;50.936;6.978;2024-03-23T12:38:52;4.30;;;1.20;;
20824;SDS011;10573;50.936;6.978;2024-03-23T12:41:35;2.42;;;1.00;;
20824;SDS011;10573;50.936;6.978;2024-03-23T12:44:20;1.10;;;0.55;;
20824;SDS011;10573;50.936;6.978;2024-03-23T12:47:04;1.33;;;0.90;;
20824;SDS011;10573;50.936;6.978;2024-03-23T12:49:48;2.10;;;0.70;;
20824;SDS011;10573;50.936;6.978;2024-03-23T12:52:33;0.93;;;0.63;;
20824;SDS011;10573;50.936;6.978;2024-03-23T12:55:17;1.40;;;0.60;;
20824;SDS011;10573;50.936;6.978;2024-03-23T12:58:01;2.03;;;0.70;;
20824;SDS011;10573;50.936;6.978;2024-03-23T13:00:45;1.52;;;0.70;;
20824;SDS011;10573;50.936;6.978;2024-03-23T13:03:29;2.05;;;0.68;;
20824;SDS011;10573;50.936;6.978;2024-03-23T13:06:13;2.50;;;1.20;;
20824;SDS011;10573;50.936;6.978;2024-03-23T13:08:58;2.58;;;0.82;;
20824;SDS011;10573;50.936;6.978;2024-03-23T13:11:42;2.28;;;1.05;;
20824;SDS011;10573;50.936;6.978;2024-03-23T13:14:26;4.55;;;1.08;;
20824;SDS011;10573;50.936;6.978;2024-03-23T13:17:10;1.90;;;0.90;;
20824;SDS011;10573;50.936;6.978;2024-03-23T13:19:54;2.73;;;1.27;;
20824;SDS011;10573;50.936;6.978;2024-03-23T13:22:39;4.20;;;1.33;;
20824;SDS011;10573;50.936;6.978;2024-03-23T13:25:25;2.92;;;1.17;;
20824;SDS011;10573;50.936;6.978;2024-03-23T13:28:09;3.15;;;1.23;;
20824;SDS011;10573;50.936;6.978;2024-03-23T13:30:53;2.45;;;1.05;;
20824;SDS011;10573;50.936;6.978;2024-03-23T13:33:37;2.90;;;1.10;;
20824;SDS011;10573;50.936;6.978;2024-03-23T13:36:21;2.80;;;1.25;;
20824;SDS011;10573;50.936;6.978;2024-03-23T13:39:05;2.85;;;1.30;;
20824;SDS011;10573;50.936;6.978;2024-03-23T13:41:54;4.57;;;1.35;;
20824;SDS011;10573;50.936;6.978;2024-03-23T13:44:39;4.30;;;1.40;;
20824;SDS011;10573;50.936;6.978;2024-03-23T13:47:23;5.25;;;1.70;;
20824;SDS011;10573;50.936;6.978;2024-03-23T13:50:07;4.70;;;1.63;;
20824;SDS011;10573;50.936;6.978;2024-03-23T13:52:52;6.32;;;1.73;;
20824;SDS011;10573;50.936;6.978;2024-03-23T13:55:36;5.82;;;2.03;;
20824;SDS011;10573;50.936;6.978;2024-03-23T13:58:20;4.53;;;1.40;;
20824;SDS011;10573;50.936;6.978;2024-03-23T14:01:04;4.90;;;1.98;;
20824;SDS011;10573;50.936;6.978;2024-03-23T14:03:48;4.03;;;1.15;;
20824;SDS011;10573;50.936;6.978;2024-03-23T14:06:33;2.50;;;0.80;;
20824;SDS011;10573;50.936;6.978;2024-03-23T14:09:17;2.47;;;0.77;;
20824;SDS011;10573;50.936;6.978;2024-03-23T14:12:06;2.25;;;0.90;;
20824;SDS011;10573;50.936;6.978;2024-03-23T14:14:52;3.40;;;0.93;;
20824;SDS011;10573;50.936;6.978;2024-03-23T14:17:36;2.28;;;0.90;;
20824;SDS011;10573;50.936;6.978;2024-03-23T14:20:21;3.47;;;0.85;;
20824;SDS011;10573;50.936;6.978;2024-03-23T14:23:05;2.22;;;0.95;;
20824;SDS011;10573;50.936;6.978;2024-03-23T14:25:50;2.10;;;1.10;;
20824;SDS011;10573;50.936;6.978;2024-03-23T14:28:36;2.40;;;1.00;;
20824;SDS011;10573;50.936;6.978;2024-03-23T14:31:20;4.38;;;1.35;;
20824;SDS011;10573;50.936;6.978;2024-03-23T14:34:04;3.70;;;1.20;;
20824;SDS011;10573;50.936;6.978;2024-03-23T14:36:48;2.33;;;1.10;;
20824;SDS011;10573;50.936;6.978;2024-03-23T14:39:33;2.27;;;1.20;;
20824;SDS011;10573;50.936;6.978;2024-03-23T14:42:22;3.78;;;1.45;;
20824;SDS011;10573;50.936;6.978;2024-03-23T14:45:08;2.50;;;1.30;;
20824;SDS011;10573;50.936;6.978;2024-03-23T14:47:53;5.22;;;1.73;;
20824;SDS011;10573;50.936;6.978;2024-03-23T14:50:37;6.13;;;1.80;;
20824;SDS011;10573;50.936;6.978;2024-03-23T14:53:21;4.97;;;1.60;;
20824;SDS011;10573;50.936;6.978;2024-03-23T14:56:06;3.55;;;1.27;;
20824;SDS011;10573;50.936;6.978;2024-03-23T14:58:54;5.57;;;1.30;;
20824;SDS011;10573;50.936;6.978;2024-03-23T15:01:39;3.92;;;0.90;;
20824;SDS011;10573;50.936;6.978;2024-03-23T15:04:25;2.40;;;1.00;;
20824;SDS011;10573;50.936;6.978;2024-03-23T15:07:09;3.13;;;0.88;;
20824;SDS011;10573;50.936;6.978;2024-03-23T15:09:53;2.15;;;0.93;;
20824;SDS011;10573;50.936;6.978;2024-03-23T15:12:38;3.65;;;0.98;;
20824;SDS011;10573;50.936;6.978;2024-03-23T15:15:22;3.20;;;1.13;;
20824;SDS011;10573;50.936;6.978;2024-03-23T15:18:07;3.63;;;1.00;;
20824;SDS011;10573;50.936;6.978;2024-03-23T15:20:52;2.03;;;1.05;;
20824;SDS011;10573;50.936;6.978;2024-03-23T15:23:37;5.03;;;1.20;;
20824;SDS011;10573;50.936;6.978;2024-03-23T15:26:21;2.72;;;1.00;;
20824;SDS011;10573;50.936;6.978;2024-03-23T15:29:05;2.53;;;1.10;;
20824;SDS011;10573;50.936;6.978;2024-03-23T15:31:53;3.23;;;0.93;;
20824;SDS011;10573;50.936;6.978;2024-03-23T15:34:38;2.90;;;1.23;;
20824;SDS011;10573;50.936;6.978;2024-03-23T15:37:22;2.95;;;1.20;;
20824;SDS011;10573;50.936;6.978;2024-03-23T15:40:06;3.45;;;1.20;;
20824;SDS011;10573;50.936;6.978;2024-03-23T15:42:53;2.63;;;1.42;;
20824;SDS011;10573;50.936;6.978;2024-03-23T15:45:38;4.03;;;1.73;;
20824;SDS011;10573;50.936;6.978;2024-03-23T15:48:22;3.50;;;1.92;;
20824;SDS011;10573;50.936;6.978;2024-03-23T15:51:07;3.85;;;1.73;;
20824;SDS011;10573;50.936;6.978;2024-03-23T15:53:52;2.65;;;1.50;;
20824;SDS011;10573;50.936;6.978;2024-03-23T15:56:41;3.65;;;1.50;;
20824;SDS011;10573;50.936;6.978;2024-03-23T15:59:25;4.05;;;1.60;;
20824;SDS011;10573;50.936;6.978;2024-03-23T16:02:09;4.35;;;1.80;;
20824;SDS011;10573;50.936;6.978;2024-03-23T16:04:55;3.85;;;1.70;;
20824;SDS011;10573;50.936;6.978;2024-03-23T16:07:40;6.45;;;3.45;;
20824;SDS011;10573;50.936;6.978;2024-03-23T16:10:24;3.78;;;1.98;;
20824;SDS011;10573;50.936;6.978;2024-03-23T16:13:09;5.20;;;1.80;;
20824;SDS011;10573;50.936;6.978;2024-03-23T16:16:00;3.78;;;1.70;;
20824;SDS011;10573;50.936;6.978;2024-03-23T16:18:47;4.57;;;1.80;;
20824;SDS011;10573;50.936;6.978;2024-03-23T16:21:31;5.50;;;1.92;;
20824;SDS011;10573;50.936;6.978;2024-03-23T16:24:15;3.30;;;1.60;;
20824;SDS011;10573;50.936;6.978;2024-03-23T16:26:59;2.70;;;1.40;;
20824;SDS011;10573;50.936;6.978;2024-03-23T16:29:43;3.22;;;1.33;;
20824;SDS011;10573;50.936;6.978;2024-03-23T16:32:27;1.42;;;0.70;;
20824;SDS011;10573;50.936;6.978;2024-03-23T16:35:13;5.50;;;1.25;;
20824;SDS011;10573;50.936;6.978;2024-03-23T16:37:58;2.60;;;1.00;;
20824;SDS011;10573;50.936;6.978;2024-03-23T16:40:44;2.03;;;1.08;;
20824;SDS011;10573;50.936;6.978;2024-03-23T16:43:37;3.58;;;1.30;;
20824;SDS011;10573;50.936;6.978;2024-03-23T16:46:22;3.35;;;1.10;;
20824;SDS011;10573;50.936;6.978;2024-03-23T16:49:06;3.97;;;1.17;;
20824;SDS011;10573;50.936;6.978;2024-03-23T16:51:50;3.42;;;1.17;;
20824;SDS011;10573;50.936;6.978;2024-03-23T16:54:34;2.40;;;0.90;;
20824;SDS011;10573;50.936;6.978;2024-03-23T16:57:18;1.60;;;0.77;;
20824;SDS011;10573;50.936;6.978;2024-03-23T17:00:03;2.20;;;0.80;;
20824;SDS011;10573;50.936;6.978;2024-03-23T17:02:47;2.80;;;1.00;;
20824;SDS011;10573;50.936;6.978;2024-03-23T17:05:37;2.38;;;1.00;;
20824;SDS011;10573;50.936;6.978;2024-03-23T17:08:22;3.45;;;0.95;;
20824;SDS011;10573;50.936;6.978;2024-03-23T17:11:06;2.50;;;1.10;;
20824;SDS011;10573;50.936;6.978;2024-03-23T17:13:50;2.92;;;1.30;;
20824;SDS011;10573;50.936;6.978;2024-03-23T17:16:39;2.97;;;1.30;;
20824;SDS011;10573;50.936;6.978;2024-03-23T17:19:23;3.13;;;1.65;;
20824;SDS011;10573;50.936;6.978;2024-03-23T17:22:10;2.08;;;1.00;;
20824;SDS011;10573;50.936;6.978;2024-03-23T17:24:54;4.22;;;1.40;;
20824;SDS011;10573;50.936;6.978;2024-03-23T17:27:38;3.33;;;1.30;;
20824;SDS011;10573;50.936;6.978;2024-03-23T17:30:22;3.33;;;1.60;;
20824;SDS011;10573;50.936;6.978;2024-03-23T17:33:05;4.40;;;1.55;;